createdAt,value
2018-12-10T00:00:35.686Z,96614.84
2018-12-10T00:03:09.525Z,96615.18
2018-12-10T00:05:37.727Z,96624.94
2018-12-10T00:08:06.011Z,96618.83
2018-12-10T00:10:41.409Z,96627.70
2018-12-10T00:13:04.418Z,96630.08
2018-12-10T00:15:32.619Z,96631.38
2018-12-10T00:18:00.789Z,96630.02
2018-12-10T00:20:29.010Z,96632.25
2018-12-10T00:22:57.183Z,96643.19
2018-12-10T00:25:25.578Z,96642.34
2018-12-10T00:27:53.772Z,96642.70
2018-12-10T00:30:21.949Z,96640.91
2018-12-10T00:32:50.143Z,96651.44
2018-12-10T00:35:18.386Z,96656.98
2018-12-10T00:37:46.570Z,96660.11
2018-12-10T00:40:14.748Z,96651.19
2018-12-10T00:42:42.952Z,96659.40
2018-12-10T00:45:11.145Z,96663.00
2018-12-10T00:47:39.313Z,96660.41
2018-12-10T00:50:07.519Z,96663.13
2018-12-10T00:52:35.687Z,96670.63
2018-12-10T00:55:03.866Z,96681.05
2018-12-10T00:57:32.058Z,96682.40
2018-12-10T01:00:00.227Z,96681.24
2018-12-10T01:02:28.409Z,96679.66
2018-12-10T01:04:56.710Z,96682.78
2018-12-10T01:07:24.884Z,96680.31
2018-12-10T01:09:53.064Z,96681.44
2018-12-10T01:12:21.307Z,96687.10
2018-12-10T01:14:49.483Z,96685.10
2018-12-10T01:17:17.654Z,96681.24
2018-12-10T01:19:45.839Z,96688.88
2018-12-10T01:22:14.015Z,96688.48
2018-12-10T01:24:42.181Z,96695.41
2018-12-10T01:27:10.380Z,96693.81
2018-12-10T01:29:38.653Z,96693.58
2018-12-10T01:32:06.959Z,96698.76
2018-12-10T01:34:35.221Z,96694.54
2018-12-10T01:37:03.390Z,96700.84
2018-12-10T01:39:31.554Z,96692.98
2018-12-10T01:41:59.772Z,96704.30
2018-12-10T01:44:27.932Z,96706.09
2018-12-10T01:46:56.096Z,96707.51
2018-12-10T01:49:24.364Z,96706.75
2018-12-10T01:51:52.537Z,96712.37
2018-12-10T01:54:20.696Z,96708.49
2018-12-10T01:56:48.884Z,96722.37
2018-12-10T01:59:17.052Z,96717.73
2018-12-10T02:01:45.215Z,96712.51
2018-12-10T02:04:13.388Z,96715.77
2018-12-10T02:06:41.556Z,96719.56
2018-12-10T02:09:09.726Z,96715.37
2018-12-10T02:11:37.928Z,96711.61
2018-12-10T02:14:06.104Z,96726.45
2018-12-10T02:16:34.275Z,96715.86
2018-12-10T02:19:02.471Z,96726.81
2018-12-10T02:21:30.633Z,96728.61
2018-12-10T02:23:58.796Z,96735.18
2018-12-10T02:26:26.976Z,96737.81
2018-12-10T02:29:00.729Z,96732.31
2018-12-10T02:31:29.639Z,96725.30
2018-12-10T02:33:57.800Z,96721.41
2018-12-10T02:36:25.990Z,96729.66
2018-12-10T02:38:54.301Z,96740.09
2018-12-10T02:41:22.469Z,96734.64
2018-12-10T02:43:50.641Z,96731.34
2018-12-10T02:46:18.837Z,96728.06
2018-12-10T02:48:47.007Z,96723.31
2018-12-10T02:51:15.169Z,96733.42
2018-12-10T02:53:43.363Z,96729.49
2018-12-10T02:56:11.643Z,96737.77
2018-12-10T02:58:39.837Z,96736.53
2018-12-10T03:01:08.054Z,96738.82
2018-12-10T03:03:36.230Z,96735.27
2018-12-10T03:06:04.417Z,96737.62
2018-12-10T03:08:32.613Z,96743.05
2018-12-10T03:11:00.821Z,96739.52
2018-12-10T03:13:28.998Z,96745.16
2018-12-10T03:15:57.220Z,96749.95
2018-12-10T03:18:25.392Z,96733.02
2018-12-10T03:20:53.641Z,96729.82
2018-12-10T03:23:21.842Z,96747.56
2018-12-10T03:25:50.029Z,96737.70
2018-12-10T03:28:18.196Z,96743.39
2018-12-10T03:30:46.385Z,96749.73
2018-12-10T03:33:14.570Z,96761.91
2018-12-10T03:35:42.740Z,96745.66
2018-12-10T03:38:11.070Z,96745.67
2018-12-10T03:40:39.241Z,96752.19
2018-12-10T03:43:07.416Z,96765.75
2018-12-10T03:45:35.731Z,96765.91
2018-12-10T03:48:03.903Z,96771.31
2018-12-10T03:50:32.072Z,96760.13
2018-12-10T03:53:00.259Z,96767.20
2018-12-10T03:55:28.421Z,96759.77
2018-12-10T03:57:56.592Z,96760.86
2018-12-10T04:00:24.805Z,96759.92
2018-12-10T04:02:52.980Z,96770.59
2018-12-10T04:05:21.151Z,96777.72
2018-12-10T04:07:49.330Z,96764.88
2018-12-10T04:10:17.494Z,96773.10
2018-12-10T04:12:45.693Z,96775.47
2018-12-10T04:15:13.874Z,96765.23
2018-12-10T04:17:42.060Z,96754.79
2018-12-10T04:20:10.236Z,96763.30
2018-12-10T04:22:38.437Z,96771.27
2018-12-10T04:25:06.610Z,96776.81
2018-12-10T04:27:34.786Z,96781.38
2018-12-10T04:30:02.989Z,96757.77
2018-12-10T04:32:31.411Z,96770.04
2018-12-10T04:34:59.791Z,96778.91
2018-12-10T04:37:27.979Z,96793.49
2018-12-10T04:39:56.152Z,96787.45
2018-12-10T04:42:24.327Z,96791.54
2018-12-10T04:44:52.564Z,96782.41
2018-12-10T04:47:20.754Z,96793.63
2018-12-10T04:49:48.917Z,96798.77
2018-12-10T04:52:17.106Z,96792.59
2018-12-10T04:54:45.290Z,96783.19
2018-12-10T04:57:13.463Z,96801.98
2018-12-10T04:59:41.660Z,96804.98
2018-12-10T05:02:09.823Z,96799.75
2018-12-10T05:04:37.983Z,96818.97
2018-12-10T05:07:06.168Z,96826.42
2018-12-10T05:09:34.326Z,96828.03
2018-12-10T05:12:02.491Z,96838.42
2018-12-10T05:14:30.682Z,96855.22
2018-12-10T05:16:58.860Z,96840.97
2018-12-10T05:19:27.237Z,96863.44
2018-12-10T05:21:55.460Z,96851.34
2018-12-10T05:24:23.660Z,96856.80
2018-12-10T05:26:51.827Z,96859.84
2018-12-10T05:29:20.014Z,96862.49
2018-12-10T05:31:48.193Z,96862.81
2018-12-10T05:34:16.364Z,96871.95
2018-12-10T05:36:44.564Z,96873.81
2018-12-10T05:39:12.842Z,96874.04
2018-12-10T05:41:41.018Z,96883.13
2018-12-10T05:44:09.197Z,96890.04
2018-12-10T05:46:37.385Z,96898.80
2018-12-10T05:49:05.561Z,96888.61
2018-12-10T05:51:33.781Z,96895.43
2018-12-10T05:54:02.210Z,96891.73
2018-12-10T05:56:30.394Z,96903.28
2018-12-10T05:58:58.716Z,96904.35
2018-12-10T06:01:26.899Z,96919.11
2018-12-10T06:03:55.121Z,96913.19
2018-12-10T06:06:23.318Z,96916.48
2018-12-10T06:08:51.488Z,96919.48
2018-12-10T06:11:19.728Z,96920.36
2018-12-10T06:13:47.901Z,96925.33
2018-12-10T06:16:16.774Z,96915.98
2018-12-10T06:18:45.174Z,96923.05
2018-12-10T06:21:13.372Z,96916.53
2018-12-10T06:23:41.585Z,96917.52
2018-12-10T06:26:09.767Z,96920.07
2018-12-10T06:28:37.987Z,96933.69
2018-12-10T06:31:06.166Z,96947.73
2018-12-10T06:33:34.340Z,96944.39
2018-12-10T06:36:02.525Z,96945.50
2018-12-10T06:38:30.691Z,96946.95
2018-12-10T06:40:58.861Z,96954.49
2018-12-10T06:43:27.101Z,96953.06
2018-12-10T06:45:55.290Z,96958.05
2018-12-10T06:48:23.467Z,96968.34
2018-12-10T06:50:51.654Z,96967.52
2018-12-10T06:53:19.833Z,96966.55
2018-12-10T06:55:48.031Z,96961.60
2018-12-10T06:58:16.236Z,96981.11
2018-12-10T07:00:44.652Z,96992.56
2018-12-10T07:03:12.844Z,96991.26
2018-12-10T07:05:41.038Z,97001.09
2018-12-10T07:08:09.260Z,97001.62
2018-12-10T07:10:37.532Z,97007.70
2018-12-10T07:13:05.721Z,97015.38
2018-12-10T07:15:33.988Z,97022.52
2018-12-10T07:18:02.218Z,97020.41
2018-12-10T07:20:30.544Z,97016.80
2018-12-10T07:22:58.719Z,97032.56
2018-12-10T07:25:26.891Z,97036.59
2018-12-10T07:27:55.089Z,97038.42
2018-12-10T07:30:23.492Z,97047.55
2018-12-10T07:32:51.660Z,97044.50
2018-12-10T07:35:19.873Z,97041.80
2018-12-10T07:37:48.040Z,97042.19
2018-12-10T07:40:16.212Z,97040.50
2018-12-10T07:42:44.397Z,97051.58
2018-12-10T07:45:12.574Z,97061.27
2018-12-10T07:47:40.751Z,97066.69
2018-12-10T07:50:08.996Z,97068.23
2018-12-10T07:52:37.168Z,97074.91
2018-12-10T07:55:05.459Z,97075.73
2018-12-10T07:57:33.646Z,97091.53
2018-12-10T08:00:01.818Z,97082.74
2018-12-10T08:02:29.988Z,97083.49
2018-12-10T08:04:58.174Z,97088.55
2018-12-10T08:07:26.352Z,97083.66
2018-12-10T08:09:54.523Z,97086.72
2018-12-10T08:12:22.788Z,97088.93
2018-12-10T08:14:50.961Z,97108.71
2018-12-10T08:17:19.163Z,97105.37
2018-12-10T08:19:47.350Z,97110.37
2018-12-10T08:22:15.519Z,97118.94
2018-12-10T08:24:43.718Z,97114.63
2018-12-10T08:27:11.915Z,97114.28
2018-12-10T08:29:40.091Z,97121.19
2018-12-10T08:32:08.572Z,97126.42
2018-12-10T08:37:06.967Z,97130.88
2018-12-10T08:39:35.158Z,97133.21
2018-12-10T08:41:00.636Z,97129.83
2018-12-10T08:42:03.362Z,97136.80
2018-12-10T08:44:31.524Z,97148.64
2018-12-10T08:46:59.692Z,97144.63
2018-12-10T08:49:27.989Z,97144.53
2018-12-10T08:51:56.174Z,97151.27
2018-12-10T08:54:24.398Z,97154.81
2018-12-10T08:56:52.614Z,97161.98
2018-12-10T08:59:20.784Z,97162.56
2018-12-10T09:01:48.950Z,97162.33
2018-12-10T09:04:17.134Z,97166.33
2018-12-10T09:06:45.320Z,97169.34
2018-12-10T09:09:13.480Z,97173.27
2018-12-10T09:11:41.735Z,97171.44
2018-12-10T09:14:09.908Z,97177.05
2018-12-10T09:16:38.073Z,97174.87
2018-12-10T09:19:06.259Z,97174.42
2018-12-10T09:21:34.476Z,97179.67
2018-12-10T09:24:02.651Z,97186.43
2018-12-10T09:26:30.844Z,97186.83
2018-12-10T09:28:59.072Z,97184.09
2018-12-10T09:31:27.257Z,97184.13
2018-12-10T09:33:55.537Z,97190.39
2018-12-10T09:36:23.712Z,97184.23
2018-12-10T09:38:51.887Z,97186.64
2018-12-10T09:41:20.072Z,97180.54
2018-12-10T09:43:48.238Z,97178.46
2018-12-10T09:46:16.402Z,97187.72
2018-12-10T09:48:44.589Z,97182.54
2018-12-10T09:51:13.062Z,97182.77
2018-12-10T09:53:41.221Z,97188.46
2018-12-10T09:56:09.401Z,97193.31
2018-12-10T09:58:37.587Z,97192.30
2018-12-10T10:01:05.755Z,97197.38
2018-12-10T10:03:33.934Z,97189.45
2018-12-10T10:06:02.095Z,97188.06
2018-12-10T10:08:30.257Z,97193.55
2018-12-10T10:10:58.458Z,97188.53
2018-12-10T10:13:26.630Z,97195.91
2018-12-10T10:15:54.795Z,97190.27
2018-12-10T10:18:22.979Z,97195.67
2018-12-10T10:20:51.144Z,97183.48
2018-12-10T10:23:19.327Z,97183.74
2018-12-10T10:25:47.564Z,97173.87
2018-12-10T10:28:15.737Z,97181.07
2018-12-10T10:30:44.207Z,97185.16
2018-12-10T10:33:12.641Z,97190.06
2018-12-10T10:35:40.810Z,97186.66
2018-12-10T10:38:08.985Z,97180.21
2018-12-10T10:40:37.192Z,97174.26
2018-12-10T10:43:05.442Z,97180.98
2018-12-10T10:45:34.848Z,97187.44
2018-12-10T10:48:03.437Z,97186.13
2018-12-10T10:50:31.609Z,97178.72
2018-12-10T10:52:59.763Z,97175.45
2018-12-10T10:55:28.056Z,97182.37
2018-12-10T10:57:56.329Z,97187.22
2018-12-10T11:00:30.121Z,97184.72
2018-12-10T11:03:11.040Z,97184.96
2018-12-10T11:05:39.237Z,97180.28
2018-12-10T11:08:07.421Z,97181.63
2018-12-10T11:10:35.636Z,97184.09
2018-12-10T11:13:03.833Z,97187.73
2018-12-10T11:15:32.003Z,97177.09
2018-12-10T11:18:00.258Z,97184.42
2018-12-10T11:20:28.464Z,97187.13
2018-12-10T11:22:56.784Z,97182.92
2018-12-10T11:25:24.985Z,97178.47
2018-12-10T11:27:53.177Z,97184.73
2018-12-10T11:30:21.356Z,97178.64
2018-12-10T11:32:49.615Z,97185.38
2018-12-10T11:35:17.807Z,97180.42
2018-12-10T11:37:45.983Z,97184.36
2018-12-10T11:40:14.154Z,97191.17
2018-12-10T11:42:42.364Z,97199.37
2018-12-10T11:45:10.533Z,97205.39
2018-12-10T11:47:38.699Z,97223.38
2018-12-10T11:50:07.022Z,97227.58
2018-12-10T11:52:35.324Z,97229.53
2018-12-10T11:55:03.512Z,97251.03
2018-12-10T11:57:31.700Z,97255.41
2018-12-10T11:59:59.873Z,97261.56
2018-12-10T12:02:29.903Z,97264.22
2018-12-10T12:04:58.298Z,97264.98
2018-12-10T12:07:26.466Z,97266.36
2018-12-10T12:09:54.644Z,97261.83
2018-12-10T12:12:22.842Z,97278.23
2018-12-10T12:14:51.148Z,97264.45
2018-12-10T12:17:19.329Z,97263.37
2018-12-10T12:19:47.546Z,97263.45
2018-12-10T12:22:15.737Z,97270.52
2018-12-10T12:24:43.906Z,97281.80
2018-12-10T12:27:12.092Z,97283.53
2018-12-10T12:29:40.289Z,97281.61
2018-12-10T12:32:08.453Z,97268.67
2018-12-10T12:34:36.644Z,97269.33
2018-12-10T12:37:04.818Z,97272.95
2018-12-10T12:39:32.989Z,97266.78
2018-12-10T12:42:01.185Z,97270.24
2018-12-10T12:44:29.357Z,97277.03
2018-12-10T12:46:57.528Z,97271.32
2018-12-10T12:49:25.780Z,97266.28
2018-12-10T12:51:53.953Z,97262.45
2018-12-10T12:54:22.122Z,97247.70
2018-12-10T12:56:50.316Z,97247.59
2018-12-10T12:59:18.485Z,97258.03
2018-12-10T13:01:49.235Z,97257.45
2018-12-10T13:04:17.260Z,97255.22
2018-12-10T13:06:45.588Z,97258.55
2018-12-10T13:09:21.597Z,97265.89
2018-12-10T13:11:44.065Z,97260.44
2018-12-10T13:14:12.348Z,97268.78
2018-12-10T13:16:40.643Z,97268.92
2018-12-10T13:19:08.833Z,97266.60
2018-12-10T13:21:37.067Z,97265.86
2018-12-10T13:24:05.234Z,97272.17
2018-12-10T13:26:33.427Z,97276.59
2018-12-10T13:29:01.764Z,97276.76
2018-12-10T13:31:30.009Z,97273.41
2018-12-10T13:33:58.201Z,97269.85
2018-12-10T13:36:26.368Z,97277.66
2018-12-10T13:38:54.591Z,97275.77
2018-12-10T13:41:22.870Z,97276.22
2018-12-10T13:43:51.023Z,97275.60
2018-12-10T13:46:19.187Z,97269.88
2018-12-10T13:48:47.368Z,97270.69
2018-12-10T13:51:15.567Z,97277.58
2018-12-10T13:53:43.735Z,97277.98
2018-12-10T13:56:11.906Z,97285.03
2018-12-10T13:58:40.059Z,97288.00
2018-12-10T14:01:08.222Z,97288.22
2018-12-10T14:03:36.413Z,97274.09
2018-12-10T14:06:04.648Z,97279.07
2018-12-10T14:08:32.877Z,97280.97
2018-12-10T14:11:01.075Z,97280.84
2018-12-10T14:13:29.243Z,97282.08
2018-12-10T14:15:57.417Z,97294.34
2018-12-10T14:18:25.600Z,97291.62
2018-12-10T14:20:53.762Z,97287.14
2018-12-10T14:23:21.936Z,97299.66
2018-12-10T14:25:50.212Z,97298.94
2018-12-10T14:28:18.402Z,97302.54
2018-12-10T14:30:46.689Z,97312.88
2018-12-10T14:33:15.010Z,97312.44
2018-12-10T14:35:43.218Z,97321.38
2018-12-10T14:38:11.372Z,97327.94
2018-12-10T14:40:39.564Z,97327.60
2018-12-10T14:43:07.721Z,97321.57
2018-12-10T14:45:35.963Z,97332.16
2018-12-10T14:48:04.162Z,97336.60
2018-12-10T14:50:32.345Z,97338.80
2018-12-10T14:53:00.534Z,97334.14
2018-12-10T14:55:28.817Z,97327.67
2018-12-10T14:57:57.091Z,97315.38
2018-12-10T15:00:25.261Z,97315.29
2018-12-10T15:02:53.450Z,97322.85
2018-12-10T15:05:21.687Z,97316.95
2018-12-10T15:07:49.851Z,97317.84
2018-12-10T15:10:23.124Z,97313.69
2018-12-10T15:12:48.386Z,97309.44
2018-12-10T15:15:16.597Z,97315.16
2018-12-10T15:17:44.795Z,97313.84
2018-12-10T15:20:12.948Z,97317.80
2018-12-10T15:22:41.204Z,97309.40
2018-12-10T15:25:09.388Z,97303.13
2018-12-10T15:27:37.610Z,97287.50
2018-12-10T15:30:07.460Z,97277.06
2018-12-10T15:32:35.709Z,97272.45
2018-12-10T15:35:04.648Z,97278.28
2018-12-10T15:37:32.807Z,97279.43
2018-12-10T15:40:00.996Z,97284.89
2018-12-10T15:42:29.165Z,97279.43
2018-12-10T15:44:57.325Z,97282.10
2018-12-10T15:47:25.505Z,97292.73
2018-12-10T15:49:53.796Z,97285.66
2018-12-10T15:52:22.033Z,97280.36
2018-12-10T15:54:50.209Z,97297.16
2018-12-10T15:57:18.383Z,97290.35
2018-12-10T15:59:46.546Z,97294.09
2018-12-10T16:02:14.849Z,97299.28
2018-12-10T16:04:43.235Z,97300.95
2018-12-10T16:07:11.447Z,97296.52
2018-12-10T16:09:39.677Z,97291.97
2018-12-10T16:12:07.855Z,97293.58
2018-12-10T16:14:36.028Z,97302.48
2018-12-10T16:17:04.228Z,97303.37
2018-12-10T16:19:32.532Z,97301.88
2018-12-10T16:22:00.706Z,97296.55
2018-12-10T16:24:28.934Z,97294.58
2018-12-10T16:26:57.190Z,97293.23
2018-12-10T16:29:25.464Z,97293.15
2018-12-10T16:31:53.661Z,97312.16
2018-12-10T16:34:21.989Z,97312.42
2018-12-10T16:36:50.169Z,97309.78
2018-12-10T16:39:18.418Z,97313.69
2018-12-10T16:41:46.670Z,97319.49
2018-12-10T16:44:14.833Z,97323.41
2018-12-10T16:46:43.040Z,97335.89
2018-12-10T16:49:11.910Z,97338.70
2018-12-10T16:51:40.111Z,97348.76
2018-12-10T16:54:08.461Z,97346.33
2018-12-10T16:56:36.903Z,97347.08
2018-12-10T16:59:05.859Z,97350.72
2018-12-10T17:01:34.912Z,97353.94
2018-12-10T17:04:03.140Z,97358.03
2018-12-10T17:06:31.321Z,97375.26
2018-12-10T17:08:59.531Z,97376.75
2018-12-10T17:11:28.176Z,97373.44
2018-12-10T17:13:57.352Z,97376.46
2018-12-10T17:16:26.241Z,97382.78
2018-12-10T17:18:54.437Z,97389.73
2018-12-10T17:21:22.608Z,97396.61
2018-12-10T17:23:50.843Z,97387.80
2018-12-10T17:26:19.408Z,97402.35
2018-12-10T17:28:47.586Z,97396.70
2018-12-10T17:31:15.885Z,97400.08
2018-12-10T17:33:45.101Z,97398.16
2018-12-10T17:36:13.292Z,97391.31
2018-12-10T17:38:41.493Z,97387.13
2018-12-10T17:41:09.690Z,97388.20
2018-12-10T17:43:38.103Z,97391.85
2018-12-10T17:46:06.372Z,97389.22
2018-12-10T17:48:34.555Z,97394.36
2018-12-10T17:51:02.730Z,97391.29
2018-12-10T17:53:30.958Z,97393.55
2018-12-10T17:55:59.138Z,97385.56
2018-12-10T17:58:27.547Z,97383.62
2018-12-10T18:00:55.748Z,97402.72
2018-12-10T18:03:23.924Z,97407.13
2018-12-10T18:05:52.097Z,97403.69
2018-12-10T18:08:20.299Z,97406.72
2018-12-10T18:10:48.460Z,97408.38
2018-12-10T18:13:16.793Z,97415.92
2018-12-10T18:15:45.015Z,97416.12
2018-12-10T18:18:13.212Z,97422.98
2018-12-10T18:20:41.634Z,97427.39
2018-12-10T18:23:09.824Z,97420.81
2018-12-10T18:25:38.004Z,97421.38
2018-12-10T18:28:06.309Z,97422.41
2018-12-10T18:30:34.630Z,97429.06
2018-12-10T18:33:02.904Z,97432.30
2018-12-10T18:35:31.095Z,97435.14
2018-12-10T18:37:59.293Z,97435.41
2018-12-10T18:40:27.471Z,97440.66
2018-12-10T18:42:55.681Z,97443.51
2018-12-10T18:45:23.914Z,97449.00
2018-12-10T18:47:52.152Z,97458.11
2018-12-10T18:50:20.331Z,97457.35
2018-12-10T18:52:48.548Z,97467.70
2018-12-10T18:55:16.766Z,97472.09
2018-12-10T18:57:44.945Z,97478.17
2018-12-10T19:00:13.256Z,97465.11
2018-12-10T19:02:41.420Z,97477.95
2018-12-10T19:05:09.617Z,97487.20
2018-12-10T19:07:37.814Z,97486.12
2018-12-10T19:10:07.484Z,97477.20
2018-12-10T19:12:36.186Z,97476.80
2018-12-10T19:15:06.641Z,97471.63
2018-12-10T19:17:34.807Z,97469.20
2018-12-10T19:20:03.713Z,97457.02
2018-12-10T19:22:31.971Z,97456.92
2018-12-10T19:25:00.296Z,97457.41
2018-12-10T19:27:28.464Z,97456.01
2018-12-10T19:29:56.658Z,97448.98
2018-12-10T19:32:31.005Z,97443.00
2018-12-10T19:34:59.186Z,97431.86
2018-12-10T19:37:27.473Z,97432.21
2018-12-10T19:39:55.648Z,97423.69
2018-12-10T19:42:23.832Z,97422.66
2018-12-10T19:44:52.039Z,97423.81
2018-12-10T19:47:20.224Z,97419.80
2018-12-10T19:49:48.430Z,97408.46
2018-12-10T19:52:16.623Z,97403.09
2018-12-10T19:54:44.811Z,97400.41
2018-12-10T19:57:12.996Z,97392.03
2018-12-10T19:59:41.160Z,97380.09
2018-12-10T20:02:09.345Z,97386.55
2018-12-10T20:04:37.541Z,97401.91
2018-12-10T20:07:06.209Z,97409.98
2018-12-10T20:09:35.227Z,97410.98
2018-12-10T20:12:03.409Z,97417.22
2018-12-10T20:14:31.580Z,97418.06
2018-12-10T20:16:59.750Z,97411.05
2018-12-10T20:19:27.967Z,97397.78
2018-12-10T20:21:56.141Z,97396.58
2018-12-10T20:24:24.301Z,97396.25
2018-12-10T20:26:52.514Z,97393.66
2018-12-10T20:29:20.718Z,97402.52
2018-12-10T20:31:48.895Z,97405.14
2018-12-10T20:34:17.228Z,97410.70
2018-12-10T20:36:45.652Z,97406.72
2018-12-10T20:39:13.927Z,97402.34
2018-12-10T20:41:42.132Z,97403.98
2018-12-10T20:44:10.303Z,97398.03
2018-12-10T20:46:38.507Z,97387.26
2018-12-10T20:49:06.705Z,97394.06
2018-12-10T20:51:34.895Z,97403.53
2018-12-10T20:54:03.500Z,97397.53
2018-12-10T20:56:31.704Z,97387.48
2018-12-10T20:58:59.901Z,97387.50
2018-12-10T21:01:28.101Z,97395.18
2018-12-10T21:03:56.318Z,97396.14
2018-12-10T21:06:29.949Z,97404.80
2018-12-10T21:08:58.676Z,97403.72
2018-12-10T21:11:26.889Z,97399.94
2018-12-10T21:13:55.225Z,97400.94
2018-12-10T21:16:23.464Z,97394.30
2018-12-10T21:18:54.964Z,97386.92
2018-12-10T21:21:23.165Z,97382.04
2018-12-10T21:23:52.286Z,97380.42
2018-12-10T21:26:20.696Z,97370.63
2018-12-10T21:28:48.900Z,97364.31
2018-12-10T21:31:17.084Z,97354.40
2018-12-10T21:33:45.260Z,97354.22
2018-12-10T21:36:13.464Z,97348.70
2018-12-10T21:38:45.515Z,97349.18
2018-12-10T21:41:12.032Z,97348.07
2018-12-10T21:43:40.238Z,97344.11
2018-12-10T21:46:08.658Z,97345.51
2018-12-10T21:48:36.832Z,97340.11
2018-12-10T21:51:05.068Z,97341.73
2018-12-10T21:53:33.258Z,97345.16
2018-12-10T21:56:01.517Z,97355.71
2018-12-10T21:58:29.715Z,97351.13
2018-12-10T22:00:57.964Z,97342.77
2018-12-10T22:03:26.226Z,97346.89
2018-12-10T22:05:54.427Z,97345.90
2018-12-10T22:08:22.705Z,97354.88
2018-12-10T22:10:50.966Z,97353.34
2018-12-10T22:13:19.163Z,97354.36
2018-12-10T22:15:47.345Z,97349.80
2018-12-10T22:18:15.524Z,97348.31
2018-12-10T22:20:43.715Z,97339.77
2018-12-10T22:23:11.921Z,97335.55
2018-12-10T22:25:40.161Z,97336.92
2018-12-10T22:28:08.372Z,97327.14
2018-12-10T22:30:36.533Z,97318.69
2018-12-10T22:33:04.719Z,97320.84
2018-12-10T22:35:32.969Z,97323.83
2018-12-10T22:38:01.158Z,97324.41
2018-12-10T22:40:29.333Z,97326.88
2018-12-10T22:42:57.564Z,97326.48
2018-12-10T22:45:25.749Z,97328.42
2018-12-10T22:47:53.935Z,97329.21
2018-12-10T22:50:22.237Z,97332.59
2018-12-10T22:52:50.408Z,97347.73
2018-12-10T22:55:18.597Z,97356.02
2018-12-10T22:57:46.814Z,97360.52
2018-12-10T23:00:15.041Z,97360.41
2018-12-10T23:02:43.225Z,97355.55
2018-12-10T23:05:11.439Z,97359.89
2018-12-10T23:10:13.025Z,97379.17
2018-12-10T23:12:41.266Z,97389.26
2018-12-10T23:15:09.438Z,97389.91
2018-12-10T23:17:37.660Z,97405.55
2018-12-10T23:20:06.592Z,97408.86
2018-12-10T23:22:34.766Z,97408.81
2018-12-10T23:25:02.949Z,97408.45
2018-12-10T23:27:31.145Z,97397.22
2018-12-10T23:29:59.326Z,97401.98
2018-12-10T23:32:27.550Z,97407.81
2018-12-10T23:34:55.758Z,97387.48
2018-12-10T23:37:24.092Z,97378.92
2018-12-10T23:39:52.299Z,97374.69
2018-12-10T23:42:20.486Z,97374.58
2018-12-10T23:44:54.931Z,97364.19
2018-12-10T23:47:23.242Z,97374.38
2018-12-10T23:49:51.505Z,97366.68
2018-12-10T23:52:19.692Z,97377.37
2018-12-10T23:54:48.018Z,97370.87
2018-12-10T23:57:16.201Z,97373.33
2018-12-10T23:59:44.538Z,97374.51
